createdAt,value
2019-05-20T00:02:36.323Z,96971.14
2019-05-20T00:05:41.154Z,96972.08
2019-05-20T00:08:45.570Z,96980.16
2019-05-20T00:11:50.073Z,96987.64
2019-05-20T00:14:54.521Z,96989.07
2019-05-20T00:17:59.301Z,96992.13
2019-05-20T00:21:03.829Z,96986.02
2019-05-20T00:24:08.558Z,96987.70
2019-05-20T00:27:12.997Z,96982.74
2019-05-20T00:30:18.121Z,96978.64
2019-05-20T00:33:22.856Z,96980.84
2019-05-20T00:36:27.585Z,96975.58
2019-05-20T00:39:32.314Z,96975.75
2019-05-20T00:42:37.047Z,96967.71
2019-05-20T00:45:42.080Z,96964.88
2019-05-20T00:48:46.532Z,96958.52
2019-05-20T00:51:51.236Z,96955.19
2019-05-20T00:54:56.026Z,96956.20
2019-05-20T00:58:01.005Z,96947.05
2019-05-20T01:01:05.739Z,96938.30
2019-05-20T01:04:10.471Z,96937.32
2019-05-20T01:07:14.951Z,96935.51
2019-05-20T01:10:19.465Z,96930.87
2019-05-20T01:13:23.915Z,96931.37
2019-05-20T01:16:28.674Z,96930.95
2019-05-20T01:19:33.403Z,96931.71
2019-05-20T01:22:38.136Z,96929.02
2019-05-20T01:25:42.579Z,96931.28
2019-05-20T01:28:47.406Z,96927.92
2019-05-20T01:31:52.135Z,96924.96
2019-05-20T01:34:56.585Z,96925.98
2019-05-20T01:38:01.333Z,96924.96
2019-05-20T01:41:05.811Z,96924.77
2019-05-20T01:44:10.260Z,96919.10
2019-05-20T01:47:14.707Z,96920.16
2019-05-20T01:50:19.482Z,96925.51
2019-05-20T01:53:24.213Z,96925.56
2019-05-20T01:56:28.661Z,96927.23
2019-05-20T01:59:33.112Z,96925.70
2019-05-20T02:02:37.553Z,96927.11
2019-05-20T02:05:42.001Z,96927.70
2019-05-20T02:08:46.455Z,96933.36
2019-05-20T02:11:51.173Z,96930.54
2019-05-20T02:14:57.263Z,96934.12
2019-05-20T02:18:01.961Z,96935.89
2019-05-20T02:21:06.411Z,96936.35
2019-05-20T02:24:10.858Z,96937.64
2019-05-20T02:27:15.536Z,96937.19
2019-05-20T02:30:19.991Z,96933.66
2019-05-20T02:33:24.435Z,96929.91
2019-05-20T02:36:28.893Z,96927.08
2019-05-20T02:39:33.320Z,96928.85
2019-05-20T02:42:38.166Z,96936.89
2019-05-20T02:45:42.607Z,96934.95
2019-05-20T02:48:47.043Z,96934.24
2019-05-20T02:51:51.492Z,96937.92
2019-05-20T02:54:55.963Z,96935.81
2019-05-20T02:58:00.385Z,96933.69
2019-05-20T03:01:04.995Z,96934.78
2019-05-20T03:04:11.989Z,96934.95
2019-05-20T03:07:16.015Z,96931.84
2019-05-20T03:10:20.533Z,96928.39
2019-05-20T03:13:25.273Z,96943.22
2019-05-20T03:16:29.741Z,96940.89
2019-05-20T03:19:34.425Z,96943.64
2019-05-20T03:22:38.873Z,96944.77
2019-05-20T03:25:43.753Z,96946.91
2019-05-20T03:28:48.195Z,96944.05
2019-05-20T03:31:52.938Z,96949.58
2019-05-20T03:34:59.828Z,96948.75
2019-05-20T03:38:03.833Z,96944.98
2019-05-20T03:41:08.564Z,96943.13
2019-05-20T03:44:13.298Z,96942.86
2019-05-20T03:47:17.741Z,96938.62
2019-05-20T03:50:22.453Z,96940.28
2019-05-20T03:53:26.894Z,96932.94
2019-05-20T03:56:31.602Z,96937.73
2019-05-20T03:59:36.057Z,96939.59
2019-05-20T04:02:40.489Z,96934.29
2019-05-20T04:05:46.847Z,96931.84
2019-05-20T04:08:51.555Z,96931.05
2019-05-20T04:11:55.996Z,96928.73
2019-05-20T04:15:00.700Z,96929.91
2019-05-20T04:18:05.157Z,96929.48
2019-05-20T04:21:09.594Z,96932.73
2019-05-20T04:24:14.154Z,96928.27
2019-05-20T04:27:18.911Z,96931.25
2019-05-20T04:30:23.635Z,96938.50
2019-05-20T04:33:28.378Z,96935.38
2019-05-20T04:36:33.104Z,96928.67
2019-05-20T04:39:37.538Z,96928.05
2019-05-20T04:42:41.984Z,96927.49
2019-05-20T04:45:47.192Z,96930.28
2019-05-20T04:48:51.641Z,96920.80
2019-05-20T04:51:56.089Z,96921.52
2019-05-20T04:55:00.537Z,96919.19
2019-05-20T04:58:04.978Z,96921.55
2019-05-20T05:01:09.410Z,96928.73
2019-05-20T05:04:13.861Z,96924.56
2019-05-20T05:07:18.316Z,96925.39
2019-05-20T05:10:23.090Z,96931.49
2019-05-20T05:13:28.025Z,96937.23
2019-05-20T05:16:32.466Z,96938.14
2019-05-20T05:19:36.923Z,96945.37
2019-05-20T05:22:41.707Z,96950.32
2019-05-20T05:25:46.845Z,96950.78
2019-05-20T05:28:51.582Z,96941.26
2019-05-20T05:31:56.308Z,96946.94
2019-05-20T05:35:01.052Z,96948.94
2019-05-20T05:38:05.693Z,96948.84
2019-05-20T05:41:10.121Z,96954.23
2019-05-20T05:44:14.830Z,96951.84
2019-05-20T05:47:20.370Z,96958.83
2019-05-20T05:50:24.817Z,96954.00
2019-05-20T05:53:29.525Z,96957.95
2019-05-20T05:56:34.264Z,96955.55
2019-05-20T05:59:38.707Z,96958.38
2019-05-20T06:02:43.477Z,96958.72
2019-05-20T06:05:47.952Z,96958.26
2019-05-20T06:08:52.411Z,96961.55
2019-05-20T06:11:57.092Z,96959.95
2019-05-20T06:15:01.855Z,96962.24
2019-05-20T06:18:06.553Z,96957.95
2019-05-20T06:21:11.291Z,96957.52
2019-05-20T06:24:16.013Z,96960.00
2019-05-20T06:27:20.743Z,96954.39
2019-05-20T06:30:38.644Z,96952.70
2019-05-20T06:33:43.416Z,96954.16
2019-05-20T06:36:50.101Z,96968.23
2019-05-20T06:39:54.583Z,96966.78
2019-05-20T06:42:59.062Z,96964.73
2019-05-20T06:46:03.499Z,96972.19
2019-05-20T06:49:07.950Z,96971.63
2019-05-20T06:52:12.392Z,96979.05
2019-05-20T06:55:17.084Z,96979.50
2019-05-20T06:58:21.541Z,96985.58
2019-05-20T07:01:25.982Z,96985.26
2019-05-20T07:04:30.436Z,96987.27
2019-05-20T07:07:34.880Z,96993.92
2019-05-20T07:10:39.677Z,96997.87
2019-05-20T07:13:44.407Z,97001.23
2019-05-20T07:16:49.274Z,97000.34
2019-05-20T07:19:53.858Z,96999.53
2019-05-20T07:22:58.324Z,97002.03
2019-05-20T07:26:02.768Z,97006.53
2019-05-20T07:29:07.228Z,96998.62
2019-05-20T07:32:11.679Z,96998.29
2019-05-20T07:35:29.767Z,96998.05
2019-05-20T07:38:22.291Z,97001.00
2019-05-20T07:41:26.985Z,97002.69
2019-05-20T07:44:31.708Z,96995.70
2019-05-20T07:47:36.886Z,96990.49
2019-05-20T07:50:42.104Z,96993.73
2019-05-20T07:53:46.851Z,96993.65
2019-05-20T07:56:53.178Z,96999.59
2019-05-20T07:59:58.497Z,96999.73
2019-05-20T08:03:03.114Z,97004.22
2019-05-20T08:06:07.812Z,97000.83
2019-05-20T08:09:12.528Z,97002.37
2019-05-20T08:12:16.965Z,97000.92
2019-05-20T08:15:21.693Z,96999.89
2019-05-20T08:18:26.128Z,96998.05
2019-05-20T08:21:30.834Z,97006.55
2019-05-20T08:24:35.289Z,97007.84
2019-05-20T08:27:39.988Z,97003.73
2019-05-20T08:30:44.451Z,97012.52
2019-05-20T08:33:48.956Z,97007.27
2019-05-20T08:36:53.432Z,97008.39
2019-05-20T08:39:57.907Z,97015.05
2019-05-20T08:43:02.627Z,97015.83
2019-05-20T08:46:07.349Z,97029.21
2019-05-20T08:49:11.985Z,97033.48
2019-05-20T08:52:16.523Z,97034.38
2019-05-20T08:55:21.245Z,97034.18
2019-05-20T08:58:25.682Z,97030.80
2019-05-20T09:01:30.393Z,97033.02
2019-05-20T09:04:34.843Z,97031.75
2019-05-20T09:07:39.298Z,97023.50
2019-05-20T09:10:43.762Z,97036.98
2019-05-20T09:13:48.202Z,97031.88
2019-05-20T09:16:53.232Z,97037.30
2019-05-20T09:19:57.958Z,97040.01
2019-05-20T09:23:03.118Z,97036.07
2019-05-20T09:26:07.600Z,97036.44
2019-05-20T09:29:12.052Z,97028.08
2019-05-20T09:32:17.036Z,97034.04
2019-05-20T09:35:21.622Z,97041.72
2019-05-20T09:38:26.442Z,97045.63
2019-05-20T09:41:30.908Z,97048.45
2019-05-20T09:44:35.342Z,97042.30
2019-05-20T09:47:39.825Z,97051.63
2019-05-20T09:50:44.757Z,97054.00
2019-05-20T09:53:49.204Z,97055.56
2019-05-20T09:56:53.911Z,97056.34
2019-05-20T09:59:58.524Z,97053.88
2019-05-20T10:03:03.318Z,97054.98
2019-05-20T10:06:07.817Z,97056.14
2019-05-20T10:09:12.259Z,97057.73
2019-05-20T10:12:16.714Z,97060.34
2019-05-20T10:15:21.766Z,97073.20
2019-05-20T10:18:36.855Z,97070.14
2019-05-20T10:21:32.395Z,97074.41
2019-05-20T10:24:36.860Z,97073.87
2019-05-20T10:27:41.381Z,97078.22
2019-05-20T10:30:45.826Z,97073.23
2019-05-20T10:33:50.600Z,97076.95
2019-05-20T10:36:55.102Z,97082.59
2019-05-20T10:39:59.830Z,97084.50
2019-05-20T10:43:04.769Z,97085.28
2019-05-20T10:46:09.391Z,97082.47
2019-05-20T10:49:14.132Z,97083.00
2019-05-20T10:52:18.984Z,97087.39
2019-05-20T10:55:23.710Z,97085.61
2019-05-20T10:58:28.725Z,97086.88
2019-05-20T11:01:33.193Z,97095.33
2019-05-20T11:04:37.890Z,97093.19
2019-05-20T11:07:42.388Z,97093.83
2019-05-20T11:10:46.809Z,97096.80
2019-05-20T11:13:51.261Z,97096.69
2019-05-20T11:16:56.001Z,97096.46
2019-05-20T11:20:00.718Z,97097.73
2019-05-20T11:23:05.168Z,97093.76
2019-05-20T11:26:09.875Z,97099.26
2019-05-20T11:29:14.707Z,97100.42
2019-05-20T11:32:19.434Z,97102.00
2019-05-20T11:35:23.881Z,97099.07
2019-05-20T11:38:28.325Z,97100.44
2019-05-20T11:41:52.646Z,97093.66
2019-05-20T11:44:39.367Z,97094.11
2019-05-20T11:47:43.850Z,97092.86
2019-05-20T11:50:48.545Z,97101.97
2019-05-20T11:53:53.268Z,97100.17
2019-05-20T11:56:58.002Z,97100.09
2019-05-20T12:00:02.620Z,97103.59
2019-05-20T12:03:07.074Z,97098.86
2019-05-20T12:06:11.635Z,97099.07
2019-05-20T12:09:16.406Z,97104.86
2019-05-20T12:12:20.851Z,97104.28
2019-05-20T12:15:25.679Z,97109.35
2019-05-20T12:18:30.137Z,97104.74
2019-05-20T12:21:34.582Z,97111.76
2019-05-20T12:24:39.354Z,97112.66
2019-05-20T12:27:44.076Z,97114.13
2019-05-20T12:30:48.531Z,97109.14
2019-05-20T12:33:52.978Z,97117.06
2019-05-20T12:36:57.423Z,97112.87
2019-05-20T12:40:07.169Z,97111.08
2019-05-20T12:43:08.051Z,97105.64
2019-05-20T12:46:12.765Z,97099.47
2019-05-20T12:49:17.593Z,97105.79
2019-05-20T12:52:22.221Z,97102.09
2019-05-20T12:55:26.674Z,97098.94
2019-05-20T12:58:31.231Z,97101.95
2019-05-20T13:01:36.017Z,97098.38
2019-05-20T13:04:40.737Z,97097.37
2019-05-20T13:07:45.693Z,97094.42
2019-05-20T13:10:50.408Z,97097.93
2019-05-20T13:13:55.138Z,97090.93
2019-05-20T13:16:59.872Z,97084.06
2019-05-20T13:20:05.014Z,97080.45
2019-05-20T13:23:11.490Z,97090.48
2019-05-20T13:26:15.650Z,97089.91
2019-05-20T13:29:20.100Z,97089.36
2019-05-20T13:32:24.855Z,97088.20
2019-05-20T13:35:29.321Z,97087.63
2019-05-20T13:38:33.756Z,97087.11
2019-05-20T13:41:38.205Z,97089.92
2019-05-20T13:44:42.959Z,97086.18
2019-05-20T13:47:47.413Z,97078.50
2019-05-20T13:50:51.865Z,97077.34
2019-05-20T13:53:56.642Z,97074.89
2019-05-20T13:57:01.372Z,97074.34
2019-05-20T14:00:10.170Z,97075.90
2019-05-20T14:03:14.926Z,97075.80
2019-05-20T14:06:19.674Z,97069.47
2019-05-20T14:09:24.101Z,97071.27
2019-05-20T14:12:28.812Z,97075.54
2019-05-20T14:15:33.619Z,97067.56
2019-05-20T14:18:38.379Z,97066.81
2019-05-20T14:21:43.105Z,97069.52
2019-05-20T14:24:47.577Z,97069.97
2019-05-20T14:27:52.367Z,97062.75
2019-05-20T14:30:56.838Z,97067.13
2019-05-20T14:34:01.370Z,97059.69
2019-05-20T14:37:05.897Z,97063.09
2019-05-20T14:40:10.686Z,97067.60
2019-05-20T14:43:15.125Z,97066.80
2019-05-20T14:46:20.034Z,97064.77
2019-05-20T14:49:24.480Z,97076.48
2019-05-20T14:52:29.187Z,97074.81
2019-05-20T14:55:42.280Z,97083.95
2019-05-20T14:58:39.837Z,97083.50
2019-05-20T15:01:44.317Z,97085.52
2019-05-20T15:04:48.761Z,97089.81
2019-05-20T15:07:53.560Z,97083.36
2019-05-20T15:10:58.287Z,97078.75
2019-05-20T15:14:03.017Z,97078.20
2019-05-20T15:17:07.462Z,97089.26
2019-05-20T15:20:12.680Z,97094.32
2019-05-20T15:23:17.126Z,97088.66
2019-05-20T15:26:21.581Z,97094.32
2019-05-20T15:29:28.374Z,97106.70
2019-05-20T15:32:32.544Z,97095.78
2019-05-20T15:35:37.280Z,97106.61
2019-05-20T15:38:41.994Z,97100.98
2019-05-20T15:41:46.466Z,97096.87
2019-05-20T15:44:50.954Z,97100.71
2019-05-20T15:47:55.448Z,97096.96
2019-05-20T15:50:59.893Z,97100.45
2019-05-20T15:54:04.400Z,97098.74
2019-05-20T15:57:08.855Z,97099.39
2019-05-20T16:00:15.130Z,97098.98
2019-05-20T16:03:19.586Z,97105.41
2019-05-20T16:06:24.032Z,97107.46
2019-05-20T16:09:28.788Z,97101.81
2019-05-20T16:12:34.422Z,97109.23
2019-05-20T16:15:39.274Z,97112.48
2019-05-20T16:18:44.015Z,97114.63
2019-05-20T16:21:48.486Z,97118.91
2019-05-20T16:24:53.358Z,97118.47
2019-05-20T16:27:57.981Z,97125.31
2019-05-20T16:31:02.497Z,97124.78
2019-05-20T16:34:07.247Z,97124.91
2019-05-20T16:37:11.877Z,97123.80
2019-05-20T16:40:16.596Z,97125.24
2019-05-20T16:43:21.219Z,97115.77
2019-05-20T16:46:25.963Z,97118.70
2019-05-20T16:49:30.416Z,97124.47
2019-05-20T16:52:34.856Z,97134.06
2019-05-20T16:55:39.652Z,97132.42
2019-05-20T16:58:44.104Z,97130.18
2019-05-20T17:01:48.559Z,97134.46
2019-05-20T17:04:53.003Z,97136.49
2019-05-20T17:07:57.456Z,97130.31
2019-05-20T17:11:02.310Z,97131.88
2019-05-20T17:14:10.398Z,97134.24
2019-05-20T17:17:13.036Z,97138.69
2019-05-20T17:20:17.726Z,97133.14
2019-05-20T17:23:22.175Z,97132.86
2019-05-20T17:26:26.621Z,97136.27
2019-05-20T17:29:31.532Z,97137.38
2019-05-20T17:32:35.949Z,97138.55
2019-05-20T17:35:40.569Z,97141.28
2019-05-20T17:38:45.019Z,97142.59
2019-05-20T17:41:49.470Z,97143.91
2019-05-20T17:44:53.923Z,97141.98
2019-05-20T17:47:58.363Z,97139.73
2019-05-20T17:51:02.874Z,97141.98
2019-05-20T17:54:07.565Z,97145.45
2019-05-20T17:57:12.010Z,97142.00
2019-05-20T18:00:20.951Z,97146.05
2019-05-20T18:03:25.814Z,97149.38
2019-05-20T18:06:30.242Z,97155.25
2019-05-20T18:09:36.682Z,97160.02
2019-05-20T18:12:41.106Z,97163.94
2019-05-20T18:15:45.554Z,97163.56
2019-05-20T18:18:50.014Z,97166.94
2019-05-20T18:21:54.767Z,97171.30
2019-05-20T18:24:59.224Z,97174.17
2019-05-20T18:28:03.679Z,97179.31
2019-05-20T18:31:08.447Z,97183.19
2019-05-20T18:34:13.181Z,97181.15
2019-05-20T18:37:17.626Z,97184.72
2019-05-20T18:40:22.724Z,97181.20
2019-05-20T18:43:27.492Z,97181.13
2019-05-20T18:46:31.940Z,97182.45
2019-05-20T18:49:36.399Z,97169.22
2019-05-20T18:52:40.845Z,97168.88
2019-05-20T18:55:45.581Z,97169.58
2019-05-20T18:58:50.311Z,97167.18
2019-05-20T19:02:04.714Z,97164.10
2019-05-20T19:05:01.513Z,97164.43
2019-05-20T19:08:06.031Z,97160.34
2019-05-20T19:11:10.971Z,97156.66
2019-05-20T19:14:15.706Z,97158.15
2019-05-20T19:17:20.234Z,97171.94
2019-05-20T19:20:24.980Z,97174.23
2019-05-20T19:23:29.803Z,97171.94
2019-05-20T19:26:34.588Z,97187.28
2019-05-20T19:29:39.269Z,97180.92
2019-05-20T19:32:43.705Z,97185.00
2019-05-20T19:35:48.228Z,97190.37
2019-05-20T19:38:52.677Z,97199.30
2019-05-20T19:41:57.139Z,97200.86
2019-05-20T19:45:01.587Z,97205.05
2019-05-20T19:48:06.030Z,97210.09
2019-05-20T19:51:10.479Z,97216.98
2019-05-20T19:54:15.257Z,97216.84
2019-05-20T19:57:19.712Z,97221.77
2019-05-20T20:00:24.616Z,97216.84
2019-05-20T20:03:29.073Z,97217.86
2019-05-20T20:06:33.526Z,97215.44
2019-05-20T20:09:38.055Z,97211.38
2019-05-20T20:12:42.821Z,97216.98
2019-05-20T20:15:47.267Z,97222.88
2019-05-20T20:18:51.978Z,97225.09
2019-05-20T20:21:56.440Z,97227.85
2019-05-20T20:25:00.866Z,97218.08
2019-05-20T20:28:05.966Z,97230.34
2019-05-20T20:31:11.087Z,97236.08
2019-05-20T20:34:15.650Z,97246.62
2019-05-20T20:37:20.361Z,97236.41
2019-05-20T20:40:24.812Z,97246.88
2019-05-20T20:43:32.106Z,97252.20
2019-05-20T20:46:35.786Z,97255.84
2019-05-20T20:49:40.226Z,97245.71
2019-05-20T20:52:44.988Z,97248.92
2019-05-20T20:55:49.769Z,97254.31
2019-05-20T20:58:54.209Z,97243.89
2019-05-20T21:01:59.362Z,97256.91
2019-05-20T21:05:05.214Z,97258.66
2019-05-20T21:08:09.657Z,97267.23
2019-05-20T21:11:14.447Z,97269.70
2019-05-20T21:14:19.175Z,97269.84
2019-05-20T21:17:23.919Z,97270.17
2019-05-20T21:20:28.642Z,97273.31
2019-05-20T21:23:33.097Z,97275.45
2019-05-20T21:26:37.901Z,97279.20
2019-05-20T21:29:42.522Z,97282.22
2019-05-20T21:32:47.271Z,97269.29
2019-05-20T21:35:51.705Z,97272.83
2019-05-20T21:38:56.511Z,97281.75
2019-05-20T21:42:01.245Z,97285.78
2019-05-20T21:45:07.916Z,97280.15
2019-05-20T21:48:12.369Z,97282.76
2019-05-20T21:51:16.835Z,97279.13
2019-05-20T21:54:21.271Z,97271.52
2019-05-20T21:57:26.025Z,97282.44
2019-05-20T22:00:34.788Z,97274.36
2019-05-20T22:03:39.307Z,97279.03
2019-05-20T22:06:44.113Z,97282.52
2019-05-20T22:09:48.554Z,97286.02
2019-05-20T22:12:53.006Z,97277.12
2019-05-20T22:15:57.758Z,97285.06
2019-05-20T22:19:08.777Z,97293.16
2019-05-20T22:22:12.996Z,97288.63
2019-05-20T22:25:17.505Z,97290.91
2019-05-20T22:28:21.959Z,97288.02
2019-05-20T22:31:26.871Z,97291.50
2019-05-20T22:34:31.331Z,97295.61
2019-05-20T22:37:36.679Z,97297.44
2019-05-20T22:40:41.378Z,97294.19
2019-05-20T22:43:45.832Z,97299.11
2019-05-20T22:46:50.276Z,97296.02
2019-05-20T22:49:54.733Z,97301.48
2019-05-20T22:52:59.183Z,97298.39
2019-05-20T22:56:03.627Z,97302.60
2019-05-20T22:59:08.083Z,97303.00
2019-05-20T23:02:12.534Z,97296.41
2019-05-20T23:05:17.271Z,97295.77
2019-05-20T23:08:22.003Z,97288.22
2019-05-20T23:11:26.727Z,97286.33
2019-05-20T23:14:31.175Z,97288.22
2019-05-20T23:17:35.882Z,97277.23
2019-05-20T23:20:40.325Z,97283.39
2019-05-20T23:23:44.784Z,97286.42
2019-05-20T23:26:49.560Z,97292.21
2019-05-20T23:29:54.015Z,97288.06
2019-05-20T23:32:58.465Z,97289.58
2019-05-20T23:36:03.485Z,97287.62
2019-05-20T23:39:07.933Z,97291.33
2019-05-20T23:42:12.382Z,97299.34
2019-05-20T23:45:16.895Z,97296.17
2019-05-20T23:48:21.353Z,97294.11
2019-05-20T23:51:26.081Z,97297.34
2019-05-20T23:54:30.536Z,97294.50
2019-05-20T23:57:34.981Z,97297.60
